DW8209 Gubbio IT current weather conditions

sailwx.info

Wind from 309 at 1 knots gusting 6

Air temperature 30.6° C
Dewpoint 13.8° C

Last reported at 2016-Aug-27 15:46 UTC.
Time now 2016-Aug-27 16:52 UTC

Location: N 43°19' E 012°34'.
View on Google Maps.

See reports from other nearby stations

  
Tides and Currents Weather Stations Pressure Air Temp Water Temp Dewpoint Dewpoint Depression Visibility Wind Speed Wind Dir Waves Ship Positions
date/time (UTC)wind fromknots sea level pressurealtimeterstation pressurevisibilityair tempwater tempwave heightnotes
2016-Aug-27 15:46 309 1 gusting 6 30.6
2016-Aug-27 15:31 300 2 gusting 4 31.1
2016-Aug-27 15:16 210 0 gusting 4 31.1
2016-Aug-27 15:00 250 0 gusting 3 31.1
2016-Aug-27 14:46 255 1 gusting 7 30.6
2016-Aug-27 14:31 316 3 gusting 8 30.6
2016-Aug-27 14:16 221 3 gusting 5 30.6
2016-Aug-27 14:01 291 4 gusting 7 30.6
2016-Aug-27 13:46 153 0 gusting 6 30.6
2016-Aug-27 13:31 287 1 gusting 9 30.6
2016-Aug-27 13:16 271 3 gusting 6 30.6
2016-Aug-27 13:01 219 2 gusting 5 31.1
2016-Aug-27 12:46 141 1 gusting 5 30.6
2016-Aug-27 12:31 210 0 gusting 5 30.0
2016-Aug-27 12:16 217 4 gusting 10 30.6
2016-Aug-27 12:01 191 1 gusting 5 30.6
2016-Aug-27 11:45 191 1 gusting 3 30.6
2016-Aug-27 11:30 231 5 gusting 8 29.4
2016-Aug-27 11:16 242 0 gusting 6 30.6
2016-Aug-27 11:01 201 1 gusting 6 28.9
2016-Aug-27 10:45 070 5 gusting 8 28.3
2016-Aug-27 10:30 118 5 gusting 6 27.8
2016-Aug-27 10:15 084 2 gusting 6 27.2
2016-Aug-27 10:00 031 1 gusting 5 27.2
2016-Aug-27 09:45 056 1 gusting 5 27.2
2016-Aug-27 09:30 093 0 gusting 3 26.7
2016-Aug-27 09:15 108 1 gusting 3 26.7
2016-Aug-27 09:00 117 1 gusting 3 26.7
2016-Aug-27 08:45 120 0 gusting 2 25.6
2016-Aug-27 08:30 136 0 gusting 1 26.1
2016-Aug-27 08:00 082 0 gusting 3 22.8
2016-Aug-27 07:45 019 22.2
2016-Aug-27 07:29 018 21.1
2016-Aug-27 07:15 020 21.1
2016-Aug-27 06:59 012 20.6
2016-Aug-27 06:44 014 19.4
2016-Aug-27 06:29 015 18.9
2016-Aug-27 06:14 015 18.3
2016-Aug-27 05:59 277 17.8
2016-Aug-27 05:44 276 16.1
2016-Aug-27 05:29 276 15.0
2016-Aug-27 05:14 277 13.3
2016-Aug-27 04:59
2016-Aug-27 04:44
2016-Aug-27 04:29
2016-Aug-27 04:14
2016-Aug-27 03:59
2016-Aug-27 03:44
2016-Aug-27 03:29
2016-Aug-27 03:13
2016-Aug-27 02:59
2016-Aug-27 02:43
2016-Aug-27 02:28
2016-Aug-27 02:13 274 13.3
2016-Aug-27 01:58 274 13.9
2016-Aug-27 01:43 275 13.9
2016-Aug-27 01:28 275 14.4
2016-Aug-27 01:13 276 13.9
2016-Aug-27 00:58 275 14.4
2016-Aug-27 00:28 263 14.4
2016-Aug-27 00:13 286 0 gusting 1 15.0
2016-Aug-26 23:58 314 15.6
2016-Aug-26 23:43 316 15.0
2016-Aug-26 23:28 274 15.0
2016-Aug-26 23:13 276 15.6
2016-Aug-26 22:58 276 15.6
2016-Aug-26 22:43 266 16.1
2016-Aug-26 22:28 259 16.1
2016-Aug-26 22:13 259 16.1
2016-Aug-26 21:58 245 16.1
2016-Aug-26 21:43 242 16.7
2016-Aug-26 21:27 291 16.7
2016-Aug-26 21:13 278 16.7
2016-Aug-26 20:57 304 17.2
2016-Aug-26 20:42 218 17.2
2016-Aug-26 20:29 219 17.8
2016-Aug-26 17:42 030 4 gusting 5 24.4
2016-Aug-26 17:27 041 2 gusting 5 25.0
2016-Aug-26 17:12 082 2 gusting 4 25.6
2016-Aug-26 16:57 043 3 gusting 6 25.6
2016-Aug-26 16:42 057 3 gusting 7 26.1
2016-Aug-26 16:27 026 6 gusting 9 26.7
2016-Aug-26 16:12 057 6 gusting 9 26.7
2016-Aug-26 15:57 057 5 gusting 7 27.2
2016-Aug-26 15:42 077 4 gusting 7 27.2
2016-Aug-26 15:27 041 6 gusting 8 27.2
2016-Aug-26 15:12 065 3 gusting 6 27.8
2016-Aug-26 14:57 049 4 gusting 8 27.8
2016-Aug-26 14:42 107 3 gusting 5 28.3
2016-Aug-26 14:27 051 3 gusting 5 28.3
2016-Aug-26 14:12 091 4 gusting 7 27.8
2016-Aug-26 13:57 138 2 gusting 6 28.3
2016-Aug-26 13:42 094 4 gusting 6 28.3
2016-Aug-26 13:27 077 1 gusting 4 28.9
2016-Aug-26 13:12 090 28.9
2016-Aug-26 12:57 144 0 gusting 7 27.2
2016-Aug-26 12:42 039 2 gusting 5 28.3
2016-Aug-26 12:27 122 27.8
2016-Aug-26 12:12 154 1 gusting 6 27.2
2016-Aug-26 11:57 084 2 gusting 7 27.8
2016-Aug-26 11:42 353 0 gusting 4 26.7
2016-Aug-26 11:27 033 0 gusting 4 26.7
2016-Aug-26 11:12 039 4 gusting 6 26.1
2016-Aug-26 10:57 298 0 gusting 6 26.1
2016-Aug-26 10:42 091 2 gusting 8 25.6
2016-Aug-26 10:27 051 4 gusting 7 25.6
2016-Aug-26 10:11 015 2 gusting 6 25.6
2016-Aug-26 09:56 069 5 gusting 8 25.0
2016-Aug-26 09:41 058 6 gusting 8 25.0
2016-Aug-26 09:27 086 6 gusting 10 24.4
2016-Aug-26 09:12 095 6 gusting 9 25.0
2016-Aug-26 08:56 077 7 gusting 11 24.4
2016-Aug-26 08:42 085 5 gusting 10 24.4
2016-Aug-26 08:26 084 4 gusting 5 24.4
2016-Aug-26 08:11 115 4 gusting 6 25.0
2016-Aug-26 07:56 124 1 gusting 3 25.0
2016-Aug-26 07:41 117 1 gusting 2 24.4
2016-Aug-26 07:26 126 0 gusting 2 23.9
2016-Aug-26 07:11 218 23.3
2016-Aug-26 06:56 210 22.2
2016-Aug-26 06:41 214 21.7
2016-Aug-26 06:26 138 21.1
2016-Aug-26 06:11 131 19.4
2016-Aug-26 05:55 124 18.3
2016-Aug-26 05:40 133 17.2
2016-Aug-26 05:25 132 15.0
2016-Aug-26 05:10
2016-Aug-26 04:55
2016-Aug-26 04:40
2016-Aug-26 04:25
2016-Aug-26 04:10
2016-Aug-26 03:55
2016-Aug-26 03:40
2016-Aug-26 03:25
2016-Aug-26 03:10
2016-Aug-26 02:55
2016-Aug-26 02:39
2016-Aug-26 02:24 129 14.4
2016-Aug-26 02:09 251 13.3
2016-Aug-26 01:54 198 13.9
2016-Aug-26 01:39 132 13.3
2016-Aug-26 01:24 150 13.3
2016-Aug-26 01:09 150 13.9
2016-Aug-26 00:54 259 13.9
2016-Aug-26 00:39 233 13.9
2016-Aug-26 00:24 167 14.4
2016-Aug-26 00:09 274 13.9
2016-Aug-25 23:54 323 13.3
2016-Aug-25 23:39 141 13.9
2016-Aug-25 23:24 294 13.9
2016-Aug-25 23:09 304 13.9
2016-Aug-25 22:54 277 14.4
2016-Aug-25 22:39 271 14.4
2016-Aug-25 22:24 346 15.0
2016-Aug-25 22:09 277 15.0
2016-Aug-25 21:54 257 0 gusting 1 15.6
2016-Aug-25 21:39 150 16.1
2016-Aug-25 21:24 269 16.1
2016-Aug-25 21:09 210 16.7
2016-Aug-25 20:54 219 1 gusting 3 17.2
2016-Aug-25 20:39 155 0 gusting 3 17.8
2016-Aug-25 20:24 205 18.9
2016-Aug-25 20:09 225 20.0
2016-Aug-25 19:54 135 0 gusting 4 20.6
2016-Aug-25 19:39 233 19.4
2016-Aug-25 19:24 278 1 gusting 2 20.0
2016-Aug-25 19:09 300 20.6
2016-Aug-25 18:54 013 20.6
2016-Aug-25 18:39 124 21.1
2016-Aug-25 18:24 042 0 gusting 3 21.7
2016-Aug-25 18:09 175 1 gusting 6 22.2
2016-Aug-25 17:54 030 6 gusting 10 22.8
2016-Aug-25 17:39 030 5 gusting 9 23.3
2016-Aug-25 17:24 026 6 gusting 11 23.3
2016-Aug-25 17:09 048 6 gusting 10 23.9
2016-Aug-25 16:54 053 6 gusting 12 24.4
2016-Aug-25 16:39 048 5 gusting 8 24.4
2016-Aug-25 16:24 065 5 gusting 10 24.4
2016-Aug-25 16:09 049 4 gusting 6 25.0